Time;durP1;ratioP1;P1;durP2;ratioP2;P2;SDS_P1;SDS_P2;PMS_P1;PMS_P2;Temp;Humidity;BMP_temperature;BMP_pressure;BME280_temperature;BME280_humidity;BME280_pressure;Samples;Min_cycle;Max_cycle;Signal;HPM_P1;HPM_P2
2023/01/08 12:21:04;;;;;;;2.13;1.80;;;;;;;10.70;100.00;97905.13;5151478;27;20553;-82
2023/01/08 12:23:47;;;;;;;2.23;1.40;;;;;;;11.52;100.00;97908.25;5133177;27;38950;-82
2023/01/08 12:26:25;;;;;;;1.23;1.17;;;;;;;12.20;99.27;97883.16;5133144;27;40544;-84
2023/01/08 12:29:42;;;;;;;2.10;1.33;;;;;;;13.84;89.61;97903.22;5150167;27;42611;-83
2023/01/08 12:32:27;;;;;;;2.10;1.20;;;;;;;15.15;80.09;97906.91;5132992;27;41873;-84
2023/01/08 12:35:00;;;;;;;1.10;1.00;;;;;;;15.39;76.57;97899.19;5132875;27;39959;-83
2023/01/08 12:37:36;;;;;;;1.17;1.07;;;;;;;15.40;71.05;97903.53;5133146;27;42313;-85
2023/01/08 12:40:13;;;;;;;1.53;1.40;;;;;;;16.03;70.24;97906.22;5149935;27;42154;-85
2023/01/08 12:42:44;;;;;;;0.90;0.90;;;;;;;15.78;68.69;97907.81;5150571;27;41159;-84
2023/01/08 12:45:20;;;;;;;1.20;1.10;;;;;;;16.02;68.67;97903.69;5132836;27;40454;-84
2023/01/08 12:47:53;;;;;;;1.63;1.10;;;;;;;15.54;67.60;97906.69;5132731;27;40846;-84
2023/01/08 12:50:31;;;;;;;1.10;1.00;;;;;;;16.20;67.40;97912.53;5132227;27;41937;-85
2023/01/08 12:53:05;;;;;;;4.17;3.77;;;;;;;15.88;65.14;97929.09;5150036;27;42191;-85
2023/01/08 12:55:44;;;;;;;1.80;1.70;;;;;;;15.46;67.36;97905.59;5150004;27;40222;-85
2023/01/08 12:58:22;;;;;;;1.30;1.20;;;;;;;15.50;68.65;97907.97;5146781;27;41789;-85
2023/01/08 13:00:56;;;;;;;1.20;1.00;;;;;;;15.14;68.30;97885.72;5132571;27;43160;-85
2023/01/08 13:03:28;;;;;;;1.13;1.03;;;;;;;14.90;68.58;97894.25;5132032;27;41078;-85
2023/01/08 13:06:08;;;;;;;1.30;1.17;;;;;;;14.29;68.23;97836.91;5132093;27;41107;-85
2023/01/08 13:08:38;;;;;;;1.20;1.10;;;;;;;14.36;69.29;97887.75;5132524;27;40693;-85
2023/01/08 13:11:13;;;;;;;1.30;1.20;;;;;;;14.26;69.95;97878.94;5140134;27;41669;-84
2023/01/08 13:13:44;;;;;;;1.57;1.10;;;;;;;14.02;69.79;97861.59;5109727;27;41124;-84
2023/01/08 13:16:23;;;;;;;2.73;1.30;;;;;;;14.00;69.98;97857.41;5122143;27;38456;-84
2023/01/08 13:18:53;;;;;;;1.37;1.20;;;;;;;13.68;69.69;97836.41;5129583;27;41805;-84
2023/01/08 13:21:30;;;;;;;1.60;1.17;;;;;;;13.93;70.78;97870.44;5145234;27;43123;-85
2023/01/08 13:24:28;;;;;;;1.30;1.10;;;;;;;13.89;70.38;97882.34;5123489;27;41181;-85
2023/01/08 13:26:56;;;;;;;1.77;1.57;;;;;;;13.79;70.98;97854.06;5119128;27;38716;-86
2023/01/08 13:29:36;;;;;;;1.10;1.00;;;;;;;13.69;70.98;97843.41;5121037;27;41774;-84
2023/01/08 13:32:03;;;;;;;1.20;1.10;;;;;;;13.85;70.50;97875.63;5110154;27;41470;-87
2023/01/08 13:34:39;;;;;;;1.10;1.00;;;;;;;13.62;70.40;97860.91;5116877;27;42425;-86
2023/01/08 13:37:06;;;;;;;1.20;1.10;;;;;;;13.57;70.74;97869.31;5117551;27;38873;-85
2023/01/08 13:39:37;;;;;;;1.43;0.90;;;;;;;13.46;71.17;97868.63;5115486;27;42289;-86
2023/01/08 13:42:22;;;;;;;1.50;1.37;;;;;;;13.35;71.41;97884.69;5134660;27;41334;-85
2023/01/08 13:44:57;;;;;;;1.07;0.90;;;;;;;13.15;71.38;97871.34;5116219;27;41446;-86
2023/01/08 13:47:30;;;;;;;0.80;0.80;;;;;;;13.12;71.67;97882.19;5108222;27;39118;-85
2023/01/08 13:50:01;;;;;;;1.37;0.93;;;;;;;12.95;72.60;97874.88;5118107;27;41186;-84
2023/01/08 13:52:36;;;;;;;1.57;1.17;;;;;;;12.95;72.72;97864.25;5117637;27;42444;-84
2023/01/08 13:55:15;;;;;;;1.60;1.10;;;;;;;12.85;72.54;97834.16;5117174;27;41149;-85
2023/01/08 13:57:45;;;;;;;1.40;1.20;;;;;;;12.98;73.48;97847.22;5118080;27;38933;-84
2023/01/08 14:00:22;;;;;;;1.70;1.60;;;;;;;12.90;72.77;97823.94;5117455;27;43090;-84
2023/01/08 14:02:50;;;;;;;1.30;1.20;;;;;;;12.87;73.33;97819.75;5117800;27;41866;-84
2023/01/08 14:05:26;;;;;;;1.30;1.13;;;;;;;12.99;73.63;97822.28;5117751;27;41115;-84
2023/01/08 14:07:54;;;;;;;1.33;1.23;;;;;;;12.89;73.56;97796.53;5118248;27;39360;-85
2023/01/08 14:10:25;;;;;;;1.50;1.37;;;;;;;12.91;73.27;97804.38;5117774;27;40849;-85
2023/01/08 14:12:53;;;;;;;1.83;1.53;;;;;;;12.70;73.94;97783.22;5118319;27;42727;-84
2023/01/08 14:15:24;;;;;;;1.27;1.17;;;;;;;12.54;73.52;97765.13;5117559;27;41070;-85
2023/01/08 14:17:53;;;;;;;1.50;1.10;;;;;;;12.47;73.91;97779.91;5126278;27;39467;-83
2023/01/08 14:20:30;;;;;;;1.10;1.00;;;;;;;12.37;74.08;97779.03;5153805;27;40677;-84
2023/01/08 14:22:59;;;;;;;1.20;1.10;;;;;;;12.27;74.43;97788.75;5137766;27;42646;-84
2023/01/08 14:25:29;;;;;;;1.27;1.17;;;;;;;12.30;74.73;97817.69;5137769;27;40781;-82
2023/01/08 14:28:00;;;;;;;1.33;1.17;;;;;;;12.10;74.76;97802.66;5139089;27;41985;-83
2023/01/08 14:30:28;;;;;;;2.07;1.07;;;;;;;12.05;75.15;97805.69;5148637;27;42922;-85
2023/01/08 14:32:57;;;;;;;1.60;1.40;;;;;;;12.09;75.68;97843.44;5117842;27;41668;-84
2023/01/08 14:35:32;;;;;;;1.60;1.30;;;;;;;11.97;75.89;97818.78;5117646;27;41358;-85
2023/01/08 14:38:01;;;;;;;1.40;1.30;;;;;;;11.98;75.88;97823.13;5118633;27;41381;-85
2023/01/08 14:40:34;;;;;;;1.60;1.50;;;;;;;12.03;76.05;97817.41;5118563;27;42043;-85
2023/01/08 14:43:08;;;;;;;1.77;1.37;;;;;;;11.93;76.26;97801.44;5116308;27;44251;-86
2023/01/08 14:45:38;;;;;;;1.80;1.60;;;;;;;12.03;76.24;97817.41;5117266;27;41287;-85
2023/01/08 14:48:11;;;;;;;1.23;1.13;;;;;;;12.02;76.63;97811.25;5116940;27;39936;-85
2023/01/08 14:50:41;;;;;;;1.73;1.50;;;;;;;11.82;76.70;97788.22;5117200;27;42023;-85
2023/01/08 14:53:19;;;;;;;2.17;1.97;;;;;;;11.89;76.85;97792.03;5134430;27;43523;-85
2023/01/08 14:55:52;;;;;;;1.53;1.43;;;;;;;11.92;77.13;97798.91;5116980;27;41116;-85
2023/01/08 14:58:23;;;;;;;1.83;1.40;;;;;;;11.50;77.13;97735.19;5116824;27;42263;-84
2023/01/08 15:00:54;;;;;;;2.00;1.60;;;;;;;11.64;77.44;97752.59;5116806;27;40827;-84
2023/01/08 15:03:41;;;;;;;2.83;1.50;;;;;;;11.60;77.85;97772.41;5131797;27;42685;-84
2023/01/08 15:06:10;;;;;;;2.10;1.60;;;;;;;11.76;77.98;97789.56;5116547;27;41098;-85
2023/01/08 15:08:39;;;;;;;1.70;1.60;;;;;;;11.64;78.02;97779.97;5117197;27;38585;-86
2023/01/08 15:11:20;;;;;;;2.17;1.83;;;;;;;11.61;78.50;97784.72;5117002;27;40716;-86
2023/01/08 15:13:50;;;;;;;2.33;2.07;;;;;;;11.35;78.66;97742.66;5116770;27;44590;-85
2023/01/08 15:16:24;;;;;;;2.77;2.03;;;;;;;11.44;78.97;97776.34;5116272;27;42208;-86
2023/01/08 15:19:01;;;;;;;4.20;2.70;;;;;;;11.41;79.21;97778.41;5115846;27;38562;-87
2023/01/08 15:21:29;;;;;;;3.00;2.43;;;;;;;11.36;79.22;97777.97;5115742;27;42228;-84
2023/01/08 15:23:58;;;;;;;3.83;2.50;;;;;;;11.26;79.49;97763.75;5116569;27;41867;-87
2023/01/08 15:26:28;;;;;;;3.03;2.33;;;;;;;11.31;79.68;97794.22;5115853;27;43352;-86
2023/01/08 15:28:58;;;;;;;2.97;2.30;;;;;;;11.27;79.80;97787.47;5115980;27;40191;-86
2023/01/08 15:31:28;;;;;;;3.37;2.43;;;;;;;11.23;80.13;97777.28;5116136;27;41240;-86
2023/01/08 15:33:56;;;;;;;2.90;2.60;;;;;;;11.03;80.35;97747.94;5116894;27;41738;-87
2023/01/08 15:36:24;;;;;;;2.57;2.37;;;;;;;11.08;80.63;97768.78;5116866;27;41000;-86
2023/01/08 15:38:52;;;;;;;2.93;2.73;;;;;;;10.87;80.77;97742.25;5116837;27;38965;-86
2023/01/08 15:44:05;;;;;;;2.87;2.53;;;;;;;10.97;81.45;97760.88;5115847;27;41944;-84
2023/01/08 15:46:33;;;;;;;2.90;2.07;;;;;;;10.83;81.17;97750.56;5116264;27;42752;-85
2023/01/08 15:49:01;;;;;;;2.30;2.10;;;;;;;10.77;81.52;97741.28;5116335;27;38679;-85
2023/01/08 15:51:31;;;;;;;2.60;2.30;;;;;;;10.59;81.59;97713.66;5116578;27;41978;-85
2023/01/08 15:53:59;;;;;;;2.40;2.20;;;;;;;10.68;82.09;97731.44;5115945;27;41912;-87
2023/01/08 15:56:33;;;;;;;2.47;2.20;;;;;;;10.65;82.26;97729.03;5115955;27;41391;-85
2023/01/08 15:59:01;;;;;;;1.70;1.60;;;;;;;10.78;82.49;97742.97;5116724;27;38929;-86
2023/01/08 16:01:32;;;;;;;1.73;1.63;;;;;;;10.61;81.93;97706.44;5133780;27;40779;-88
2023/01/08 16:04:00;;;;;;;2.23;1.67;;;;;;;10.30;82.03;97665.72;5116547;27;44415;-86
2023/01/08 16:06:28;;;;;;;1.43;1.33;;;;;;;10.65;82.29;97735.16;5133355;27;42324;-84
2023/01/08 16:08:58;;;;;;;1.90;1.67;;;;;;;10.30;82.55;97685.06;5115850;27;39084;-82
2023/01/08 16:11:27;;;;;;;2.00;1.67;;;;;;;10.56;82.81;97716.53;5115300;27;42113;-84
